Time;durP1;ratioP1;P1;durP2;ratioP2;P2;SDS_P1;SDS_P2;PMS_P1;PMS_P2;Temp;Humidity;BMP_temperature;BMP_pressure;BME280_temperature;BME280_humidity;BME280_pressure;Samples;Min_cycle;Max_cycle;Signal;HPM_P1;HPM_P2
2022/10/12 00:00:29;;;;;;;;;;;18.60;54.00;;;;;;5094266;28;19927;-72
2022/10/12 00:02:55;;;;;;;;;;;18.60;54.00;;;;;;5094417;28;20264;-71
2022/10/12 00:05:20;;;;;;;;;;;18.60;54.00;;;;;;5094831;28;19928;-71
2022/10/12 00:07:46;;;;;;;;;;;18.60;54.00;;;;;;5094307;28;19920;-71
2022/10/12 00:10:11;;;;;;;;;;;18.60;54.10;;;;;;5094506;28;19920;-71
2022/10/12 00:12:37;;;;;;;;;;;18.60;54.10;;;;;;5094277;28;19927;-72
2022/10/12 00:15:03;;;;;;;;;;;18.50;54.00;;;;;;5094702;28;19926;-71
2022/10/12 00:17:28;;;;;;;;;;;18.50;54.00;;;;;;5094350;28;19919;-74
2022/10/12 00:19:54;;;;;;;;;;;18.50;54.10;;;;;;5112568;28;19923;-71
2022/10/12 00:22:19;;;;;;;;;;;18.50;54.10;;;;;;5097580;28;20367;-71
2022/10/12 00:24:45;;;;;;;;;;;18.50;54.10;;;;;;5098307;28;19928;-72
2022/10/12 00:27:11;;;;;;;;;;;18.50;54.10;;;;;;5098600;28;19927;-71
2022/10/12 00:29:36;;;;;;;;;;;18.50;54.20;;;;;;5116585;28;20318;-71
2022/10/12 00:32:02;;;;;;;;;;;18.40;54.10;;;;;;5098668;28;20398;-75
2022/10/12 00:34:27;;;;;;;;;;;18.40;54.20;;;;;;5098609;28;20427;-72
2022/10/12 00:36:54;;;;;;;;;;;18.30;54.10;;;;;;5098186;28;20008;-71
2022/10/12 00:39:20;;;;;;;;;;;18.40;54.20;;;;;;5098167;28;19928;-71
2022/10/12 00:41:45;;;;;;;;;;;18.40;54.20;;;;;;5098127;28;19942;-72
2022/10/12 00:44:31;;;;;;;;;;;18.40;54.20;;;;;;5097985;28;19946;-71
2022/10/12 00:46:57;;;;;;;;;;;18.40;55.00;;;;;;5115116;28;19994;-72
2022/10/12 00:49:23;;;;;;;;;;;18.30;54.20;;;;;;5116217;28;20173;-72
2022/10/12 00:51:51;;;;;;;;;;;18.30;54.20;;;;;;5097845;28;19924;-72
2022/10/12 00:54:19;;;;;;;;;;;18.30;54.20;;;;;;5097789;28;19999;-71
2022/10/12 00:56:45;;;;;;;;;;;18.40;54.20;;;;;;5114846;28;19920;-71
2022/10/12 00:59:14;;;;;;;;;;;18.30;54.20;;;;;;5093313;28;20416;-71
2022/10/12 01:01:40;;;;;;;;;;;18.30;54.20;;;;;;5097624;28;20014;-71
2022/10/12 01:04:06;;;;;;;;;;;18.30;54.20;;;;;;5097584;28;20018;-72
2022/10/12 01:06:32;;;;;;;;;;;18.30;54.20;;;;;;5097516;28;19927;-71
2022/10/12 01:08:58;;;;;;;;;;;18.30;54.20;;;;;;5097519;28;19927;-71
2022/10/12 01:11:24;;;;;;;;;;;18.30;54.20;;;;;;5097829;28;19920;-71
2022/10/12 01:13:50;;;;;;;;;;;18.30;54.30;;;;;;5115652;28;20311;-72
2022/10/12 01:16:35;;;;;;;;;;;18.30;54.30;;;;;;5097840;28;20385;-72
2022/10/12 01:19:09;;;;;;;;;;;18.20;54.20;;;;;;5097050;28;20371;-71
2022/10/12 01:21:38;;;;;;;;;;;18.20;54.20;;;;;;5097390;28;19977;-71
2022/10/12 01:24:20;;;;;;;;;;;18.20;54.20;;;;;;5115388;28;19972;-72
2022/10/12 01:30:00;;;;;;;;;;;18.20;54.20;;;;;;5110323;27;19919;-71
2022/10/12 01:32:38;;;;;;;;;;;18.20;54.20;;;;;;5108772;28;19920;-71
2022/10/12 01:37:52;;;;;;;;;;;18.20;54.30;;;;;;5126291;27;1899262;-71
2022/10/12 01:40:23;;;;;;;;;;;18.20;54.20;;;;;;5193023;27;19918;-71
2022/10/12 01:42:48;;;;;;;;;;;18.10;54.20;;;;;;5174410;27;19922;-72
2022/10/12 01:45:15;;;;;;;;;;;18.10;54.20;;;;;;5174560;27;19923;-72
2022/10/12 01:47:43;;;;;;;;;;;18.20;54.20;;;;;;5174672;27;19918;-71
2022/10/12 01:50:10;;;;;;;;;;;18.10;54.30;;;;;;5174493;27;19971;-71
2022/10/12 01:52:42;;;;;;;;;;;18.20;54.30;;;;;;5193021;27;19918;-71
2022/10/12 01:55:27;;;;;;;;;;;18.30;54.30;;;;;;5174027;27;19925;-71
2022/10/12 01:58:13;;;;;;;;;;;18.30;54.20;;;;;;5173903;27;20389;-71
2022/10/12 02:00:46;;;;;;;;;;;18.40;54.20;;;;;;5173711;27;19979;-71
2022/10/12 02:03:18;;;;;;;;;;;18.60;54.30;;;;;;5174284;27;20011;-71
2022/10/12 02:05:47;;;;;;;;;;;18.80;54.40;;;;;;5173885;27;20438;-71
2022/10/12 02:13:30;;;;;;;;;;;19.40;53.70;;;;;;5089882;28;20384;-71
2022/10/12 02:15:57;;;;;;;;;;;19.50;53.40;;;;;;5088510;28;20011;-71
2022/10/12 02:18:23;;;;;;;;;;;19.60;52.90;;;;;;5105517;28;19966;-71
2022/10/12 02:20:50;;;;;;;;;;;19.80;52.60;;;;;;5088756;28;19924;-71
2022/10/12 02:23:17;;;;;;;;;;;19.90;52.50;;;;;;5088893;28;20034;-71
2022/10/12 02:25:43;;;;;;;;;;;20.00;52.00;;;;;;5088395;28;19927;-71
2022/10/12 02:28:11;;;;;;;;;;;20.10;51.90;;;;;;5088344;28;19921;-71
2022/10/12 02:30:42;;;;;;;;;;;20.20;51.80;;;;;;5088329;28;19920;-71
2022/10/12 02:33:12;;;;;;;;;;;20.30;51.80;;;;;;5105152;28;19932;-71
2022/10/12 02:35:42;;;;;;;;;;;20.40;51.70;;;;;;5088625;28;19920;-71
2022/10/12 02:38:15;;;;;;;;;;;20.50;51.50;;;;;;5088452;28;19928;-71
2022/10/12 02:40:45;;;;;;;;;;;20.60;50.90;;;;;;5088466;28;20288;-71
2022/10/12 02:45:58;;;;;;;;;;;20.80;50.70;;;;;;5110307;27;19938;-71
2022/10/12 02:48:24;;;;;;;;;;;20.90;50.70;;;;;;5143088;27;19920;-71
2022/10/12 02:50:52;;;;;;;;;;;20.90;50.50;;;;;;5108807;28;19924;-71
2022/10/12 02:53:18;;;;;;;;;;;21.00;50.20;;;;;;5108769;28;20371;-71
2022/10/12 02:55:52;;;;;;;;;;;21.00;50.00;;;;;;5108994;28;19930;-71
2022/10/12 02:58:18;;;;;;;;;;;21.20;50.00;;;;;;5108941;28;19966;-71
2022/10/12 03:00:44;;;;;;;;;;;21.20;49.80;;;;;;5108664;28;19924;-71
2022/10/12 03:03:09;;;;;;;;;;;21.20;49.60;;;;;;5091618;28;19927;-71
2022/10/12 03:05:35;;;;;;;;;;;21.30;49.60;;;;;;5109795;28;19931;-71
2022/10/12 03:08:00;;;;;;;;;;;21.40;49.50;;;;;;5109848;28;19920;-71
2022/10/12 03:10:26;;;;;;;;;;;21.50;49.50;;;;;;5143021;27;19920;-71
2022/10/12 03:12:52;;;;;;;;;;;21.60;49.20;;;;;;5108372;28;19934;-73
2022/10/12 03:15:18;;;;;;;;;;;21.70;48.90;;;;;;5109895;28;19924;-71
2022/10/12 03:17:43;;;;;;;;;;;21.80;49.10;;;;;;5108569;28;19976;-71
2022/10/12 03:20:09;;;;;;;;;;;21.90;48.70;;;;;;5108645;28;19920;-71
2022/10/12 03:22:34;;;;;;;;;;;21.90;48.70;;;;;;5142565;27;19920;-71
2022/10/12 03:25:00;;;;;;;;;;;22.00;48.60;;;;;;5109353;28;19924;-71
2022/10/12 03:27:25;;;;;;;;;;;22.10;48.40;;;;;;5108474;28;19931;-71
2022/10/12 03:29:51;;;;;;;;;;;22.10;48.30;;;;;;5108034;28;20326;-71
2022/10/12 03:32:17;;;;;;;;;;;22.20;48.10;;;;;;5109485;28;19920;-71
2022/10/12 03:34:42;;;;;;;;;;;22.20;47.80;;;;;;5108009;28;19920;-71
2022/10/12 03:37:08;;;;;;;;;;;22.20;47.80;;;;;;5108043;28;19945;-71
2022/10/12 03:39:33;;;;;;;;;;;22.20;47.60;;;;;;5142585;27;19920;-71
2022/10/12 03:41:59;;;;;;;;;;;22.20;47.60;;;;;;5108183;28;20287;-71
2022/10/12 03:44:24;;;;;;;;;;;22.20;47.80;;;;;;5107494;28;20387;-71
2022/10/12 03:46:50;;;;;;;;;;;22.30;47.60;;;;;;5108051;28;19952;-71
2022/10/12 03:49:15;;;;;;;;;;;22.30;47.60;;;;;;5142048;27;19927;-71
2022/10/12 03:51:41;;;;;;;;;;;22.40;47.60;;;;;;5090795;28;19920;-71
2022/10/12 03:54:07;;;;;;;;;;;22.40;47.50;;;;;;5141949;27;19919;-71
2022/10/12 03:56:32;;;;;;;;;;;22.50;47.30;;;;;;5098246;28;19924;-71
2022/10/12 03:58:58;;;;;;;;;;;22.60;47.40;;;;;;5095192;28;20150;-71
2022/10/12 04:01:24;;;;;;;;;;;22.60;47.00;;;;;;5094170;28;19974;-71
2022/10/12 04:03:50;;;;;;;;;;;22.70;47.00;;;;;;5095337;28;19932;-71
2022/10/12 04:06:15;;;;;;;;;;;22.80;47.10;;;;;;5127959;27;20398;-71
2022/10/12 04:08:41;;;;;;;;;;;22.80;46.90;;;;;;5095147;28;20010;-71
2022/10/12 04:11:07;;;;;;;;;;;22.90;46.60;;;;;;5093826;28;20386;-71
2022/10/12 04:13:32;;;;;;;;;;;22.90;46.60;;;;;;5093662;28;19928;-71
2022/10/12 04:16:01;;;;;;;;;;;23.00;46.40;;;;;;5093642;28;19924;-71
2022/10/12 04:18:26;;;;;;;;;;;23.00;47.10;;;;;;5093667;28;20006;-71
2022/10/12 04:20:52;;;;;;;;;;;23.10;46.20;;;;;;5093621;28;20011;-71
2022/10/12 04:23:17;;;;;;;;;;;23.10;46.30;;;;;;5093633;28;20006;-75
2022/10/12 04:25:43;;;;;;;;;;;23.10;46.10;;;;;;5093402;28;20023;-71
2022/10/12 04:28:08;;;;;;;;;;;23.20;46.10;;;;;;5076559;28;19977;-71
2022/10/12 04:30:34;;;;;;;;;;;23.20;45.80;;;;;;5093348;28;19923;-71
2022/10/12 04:32:59;;;;;;;;;;;23.20;45.90;;;;;;5127572;27;19924;-71
2022/10/12 04:35:25;;;;;;;;;;;23.30;45.80;;;;;;5093294;28;20007;-71
2022/10/12 04:37:51;;;;;;;;;;;23.30;45.80;;;;;;5093302;28;19920;-75
2022/10/12 04:40:16;;;;;;;;;;;23.40;45.80;;;;;;5093132;28;19927;-71
2022/10/12 04:42:41;;;;;;;;;;;23.40;45.60;;;;;;5093515;28;19943;-71
2022/10/12 04:45:07;;;;;;;;;;;23.40;45.60;;;;;;5090541;28;20402;-71
2022/10/12 04:47:34;;;;;;;;;;;23.40;45.50;;;;;;5093066;28;20018;-71
2022/10/12 04:50:00;;;;;;;;;;;23.40;45.30;;;;;;5093304;28;19925;-71
2022/10/12 04:52:25;;;;;;;;;;;23.40;45.30;;;;;;5092973;28;19927;-72
2022/10/12 04:54:51;;;;;;;;;;;23.50;45.30;;;;;;5127089;27;20042;-72
2022/10/12 04:57:16;;;;;;;;;;;23.50;45.40;;;;;;5093167;28;20006;-71
2022/10/12 04:59:42;;;;;;;;;;;23.50;45.20;;;;;;5092755;28;19927;-71
2022/10/12 05:02:07;;;;;;;;;;;23.50;45.20;;;;;;5092792;28;19923;-71
2022/10/12 05:04:33;;;;;;;;;;;23.50;45.20;;;;;;5092711;28;19928;-71
2022/10/12 05:06:58;;;;;;;;;;;23.60;45.20;;;;;;5092135;28;19927;-71
2022/10/12 05:09:24;;;;;;;;;;;23.50;45.10;;;;;;5092167;28;19920;-71
2022/10/12 05:11:49;;;;;;;;;;;23.50;45.20;;;;;;5092520;28;20038;-71
2022/10/12 05:14:15;;;;;;;;;;;23.50;45.10;;;;;;5126724;27;19920;-71
2022/10/12 05:16:40;;;;;;;;;;;23.60;45.10;;;;;;5091729;28;19923;-71
2022/10/12 05:19:06;;;;;;;;;;;23.50;45.10;;;;;;5092803;28;19927;-71
2022/10/12 05:21:32;;;;;;;;;;;23.50;45.10;;;;;;5092363;28;20260;-71
2022/10/12 05:23:57;;;;;;;;;;;23.50;45.00;;;;;;5092274;28;19931;-72
2022/10/12 05:26:23;;;;;;;;;;;23.50;43.30;;;;;;5092400;28;19927;-71
2022/10/12 05:28:48;;;;;;;;;;;23.40;43.30;;;;;;5092314;28;19920;-72
2022/10/12 05:31:14;;;;;;;;;;;23.20;43.40;;;;;;5092574;28;19978;-71
2022/10/12 05:33:39;;;;;;;;;;;23.20;43.60;;;;;;5092225;28;19920;-71
2022/10/12 05:36:05;;;;;;;;;;;23.10;43.00;;;;;;5092175;28;20394;-71
2022/10/12 05:38:31;;;;;;;;;;;22.90;41.60;;;;;;5093317;28;19927;-72
2022/10/12 05:40:56;;;;;;;;;;;22.70;41.40;;;;;;5093472;28;19935;-71
2022/10/12 05:43:22;;;;;;;;;;;22.60;41.30;;;;;;5092017;28;19954;-71
2022/10/12 05:45:47;;;;;;;;;;;22.50;41.10;;;;;;5107329;28;20022;-71
2022/10/12 05:48:13;;;;;;;;;;;22.50;42.30;;;;;;5090514;28;19970;-70
2022/10/12 05:50:38;;;;;;;;;;;22.50;42.50;;;;;;5084588;28;19920;-70
2022/10/12 05:53:04;;;;;;;;;;;22.50;42.70;;;;;;5089594;28;19973;-70
2022/10/12 05:55:29;;;;;;;;;;;22.50;42.80;;;;;;5090942;28;19977;-70
2022/10/12 05:57:55;;;;;;;;;;;22.60;42.70;;;;;;5108858;28;19920;-69
2022/10/12 06:00:21;;;;;;;;;;;22.60;43.50;;;;;;5105886;28;20011;-69
2022/10/12 06:02:46;;;;;;;;;;;22.60;43.00;;;;;;5107394;27;19959;-68
2022/10/12 06:05:12;;;;;;;;;;;22.70;43.50;;;;;;5104621;27;19930;-69
2022/10/12 06:07:37;;;;;;;;;;;22.70;43.10;;;;;;5077280;28;19920;-68
2022/10/12 06:10:03;;;;;;;;;;;22.60;41.90;;;;;;5105893;28;19931;-68
2022/10/12 06:12:29;;;;;;;;;;;22.60;41.90;;;;;;5087324;28;19959;-69
2022/10/12 06:14:54;;;;;;;;;;;22.60;42.40;;;;;;5099089;28;19920;-69
2022/10/12 06:17:20;;;;;;;;;;;22.50;42.20;;;;;;5067029;28;20896;-69
2022/10/12 06:19:45;;;;;;;;;;;22.50;42.30;;;;;;5085751;28;20409;-69
2022/10/12 06:22:11;;;;;;;;;;;22.40;42.40;;;;;;5087318;28;20371;-69
2022/10/12 06:24:37;;;;;;;;;;;22.40;42.20;;;;;;5072555;28;19935;-70
2022/10/12 06:27:03;;;;;;;;;;;22.40;41.90;;;;;;5063258;28;19988;-70
2022/10/12 06:29:28;;;;;;;;;;;22.30;42.80;;;;;;5069383;28;19920;-70
2022/10/12 06:31:54;;;;;;;;;;;22.20;42.30;;;;;;5073042;28;20000;-70
2022/10/12 06:34:20;;;;;;;;;;;22.10;42.00;;;;;;5104579;28;19928;-70
2022/10/12 06:36:45;;;;;;;;;;;22.00;42.10;;;;;;5070769;28;20415;-70
2022/10/12 06:39:11;;;;;;;;;;;21.90;42.50;;;;;;5067807;28;19920;-72
2022/10/12 06:41:37;;;;;;;;;;;21.80;42.40;;;;;;5069236;28;19931;-67
2022/10/12 06:44:03;;;;;;;;;;;21.80;42.30;;;;;;5085949;28;19931;-72
2022/10/12 06:46:29;;;;;;;;;;;21.80;43.50;;;;;;5077953;28;19924;-71
2022/10/12 06:48:54;;;;;;;;;;;21.80;43.80;;;;;;5068830;28;19985;-70
2022/10/12 06:51:20;;;;;;;;;;;21.90;43.90;;;;;;5073453;28;20011;-70
2022/10/12 06:53:45;;;;;;;;;;;21.90;43.90;;;;;;5074248;28;20002;-74
2022/10/12 06:56:11;;;;;;;;;;;21.80;44.00;;;;;;5068880;28;19920;-72
2022/10/12 06:58:37;;;;;;;;;;;21.80;44.20;;;;;;5072394;28;19924;-67
2022/10/12 07:01:03;;;;;;;;;;;21.80;44.50;;;;;;5072551;28;20444;-71
2022/10/12 07:03:29;;;;;;;;;;;21.70;44.80;;;;;;5073224;28;19924;-68
2022/10/12 07:05:54;;;;;;;;;;;21.70;44.90;;;;;;5088503;28;20425;-71
2022/10/12 07:08:20;;;;;;;;;;;21.70;44.90;;;;;;5068429;28;19931;-70
2022/10/12 07:10:46;;;;;;;;;;;21.70;45.10;;;;;;5072328;28;20466;-72
2022/10/12 07:13:11;;;;;;;;;;;21.70;45.90;;;;;;5074833;28;19920;-67
2022/10/12 07:15:37;;;;;;;;;;;21.70;45.20;;;;;;5105250;28;20535;-68
2022/10/12 07:18:02;;;;;;;;;;;21.70;45.00;;;;;;5105237;28;19920;-69
2022/10/12 07:20:28;;;;;;;;;;;21.70;45.10;;;;;;5101829;28;19927;-68
2022/10/12 07:22:53;;;;;;;;;;;21.70;45.10;;;;;;5088489;28;19919;-76
2022/10/12 07:25:21;;;;;;;;;;;21.70;44.90;;;;;;5072847;28;19924;-75
2022/10/12 07:27:47;;;;;;;;;;;21.60;45.00;;;;;;5088467;28;19971;-67
2022/10/12 07:30:12;;;;;;;;;;;21.70;45.30;;;;;;5071859;28;20363;-72
2022/10/12 07:32:38;;;;;;;;;;;21.70;45.20;;;;;;5079551;28;19923;-68
2022/10/12 07:35:04;;;;;;;;;;;21.60;45.60;;;;;;5090654;28;19935;-67
2022/10/12 07:37:29;;;;;;;;;;;21.60;45.80;;;;;;5092840;27;20119;-68
2022/10/12 07:39:56;;;;;;;;;;;21.90;45.80;;;;;;5092745;28;19924;-67
2022/10/12 07:42:22;;;;;;;;;;;21.60;45.80;;;;;;5071597;28;20458;-67
2022/10/12 07:44:47;;;;;;;;;;;21.60;45.90;;;;;;5068635;28;20011;-67
2022/10/12 07:47:15;;;;;;;;;;;21.50;45.50;;;;;;5075957;28;20326;-67
2022/10/12 07:49:41;;;;;;;;;;;21.50;45.80;;;;;;5072345;28;19920;-67
2022/10/12 07:52:06;;;;;;;;;;;21.40;46.00;;;;;;5070009;28;19924;-67
2022/10/12 07:54:32;;;;;;;;;;;21.40;46.20;;;;;;5069749;28;19924;-68
2022/10/12 07:56:57;;;;;;;;;;;21.40;46.00;;;;;;5068565;28;20466;-67
2022/10/12 07:59:23;;;;;;;;;;;22.00;46.20;;;;;;5069143;28;19921;-67
2022/10/12 08:01:49;;;;;;;;;;;21.30;45.80;;;;;;5073381;28;20003;-68
2022/10/12 08:04:14;;;;;;;;;;;21.20;46.70;;;;;;5068596;28;20010;-68
2022/10/12 08:06:40;;;;;;;;;;;21.20;46.20;;;;;;5072445;28;20003;-67
2022/10/12 08:09:06;;;;;;;;;;;21.20;45.90;;;;;;5105268;27;19924;-67
2022/10/12 08:11:36;;;;;;;;;;;21.20;45.50;;;;;;5073573;28;19924;-69
2022/10/12 08:14:01;;;;;;;;;;;21.20;45.70;;;;;;5068190;28;19943;-70
2022/10/12 08:16:27;;;;;;;;;;;21.10;45.20;;;;;;5071261;28;20374;-66
2022/10/12 08:18:53;;;;;;;;;;;21.10;45.50;;;;;;5072090;28;19932;-66
2022/10/12 08:21:18;;;;;;;;;;;21.10;46.00;;;;;;5080165;28;20653;-67
2022/10/12 08:23:45;;;;;;;;;;;21.10;46.20;;;;;;5073658;28;19990;-67
2022/10/12 08:26:11;;;;;;;;;;;21.10;46.30;;;;;;5076477;28;20327;-67
2022/10/12 08:28:37;;;;;;;;;;;21.20;46.40;;;;;;5077538;28;20007;-67
2022/10/12 08:31:06;;;;;;;;;;;21.20;46.40;;;;;;5077221;28;20079;-67
2022/10/12 08:33:32;;;;;;;;;;;21.20;46.40;;;;;;5078130;28;19946;-67
2022/10/12 08:36:01;;;;;;;;;;;21.20;46.40;;;;;;5076671;28;20626;-67
2022/10/12 08:38:26;;;;;;;;;;;21.10;46.40;;;;;;5075889;28;20379;-67
2022/10/12 08:40:55;;;;;;;;;;;21.70;46.70;;;;;;5083747;28;20023;-67
2022/10/12 08:46:01;;;;;;;;;;;21.20;46.50;;;;;;5080200;27;1882405;-66
2022/10/12 08:48:29;;;;;;;;;;;21.10;46.40;;;;;;5114870;27;19927;-66
2022/10/12 08:50:57;;;;;;;;;;;21.20;46.50;;;;;;5119769;27;20006;-66
2022/10/12 08:53:43;;;;;;;;;;;21.10;46.50;;;;;;5109509;27;19959;-68
2022/10/12 08:56:08;;;;;;;;;;;21.10;46.50;;;;;;5114093;27;19927;-67
2022/10/12 08:58:35;;;;;;;;;;;21.10;46.60;;;;;;5137559;27;19919;-68
2022/10/12 09:01:20;;;;;;;;;;;21.10;46.60;;;;;;5138201;27;20358;-68
2022/10/12 09:04:06;;;;;;;;;;;21.10;46.70;;;;;;5120387;27;19926;-70
2022/10/12 09:06:35;;;;;;;;;;;21.10;46.80;;;;;;5121116;27;20358;-67
2022/10/12 09:09:04;;;;;;;;;;;21.10;46.90;;;;;;5116968;27;19919;-67
2022/10/12 09:14:15;;;;;;;;;;;21.10;47.10;;;;;;5069103;28;20067;-68
2022/10/12 09:16:42;;;;;;;;;;;21.10;47.40;;;;;;5055257;28;19974;-68
2022/10/12 09:19:14;;;;;;;;;;;21.10;47.40;;;;;;5067335;28;19921;-69
2022/10/12 09:21:41;;;;;;;;;;;21.10;47.60;;;;;;5054588;28;19925;-71
2022/10/12 09:24:11;;;;;;;;;;;21.00;47.30;;;;;;5055620;28;20015;-71
2022/10/12 09:26:38;;;;;;;;;;;21.10;47.30;;;;;;5054170;28;20014;-68
2022/10/12 09:29:24;;;;;;;;;;;21.10;47.30;;;;;;5068588;28;20381;-69
2022/10/12 09:31:58;;;;;;;;;;;21.10;47.30;;;;;;5051658;28;19924;-71
2022/10/12 09:34:24;;;;;;;;;;;21.10;47.60;;;;;;5050467;28;19948;-72
2022/10/12 09:36:50;;;;;;;;;;;21.10;47.90;;;;;;5036589;28;20288;-69
2022/10/12 09:41:56;;;;;;;;;;;21.00;47.70;;;;;;5096790;27;19935;-69
2022/10/12 09:44:39;;;;;;;;;;;21.10;47.80;;;;;;5091088;28;20380;-68
2022/10/12 09:47:06;;;;;;;;;;;21.00;47.40;;;;;;5119666;27;20163;-70
2022/10/12 09:52:20;;;;;;;;;;;21.00;47.80;;;;;;5088627;27;19923;-69
2022/10/12 09:54:48;;;;;;;;;;;21.00;47.90;;;;;;5052565;28;19928;-70
2022/10/12 09:57:33;;;;;;;;;;;21.00;48.10;;;;;;5075258;28;19920;-70
2022/10/12 10:00:00;;;;;;;;;;;21.00;48.00;;;;;;5073064;28;19925;-67
2022/10/12 10:02:25;;;;;;;;;;;21.00;47.90;;;;;;5074162;28;19928;-70
2022/10/12 10:04:52;;;;;;;;;;;21.00;48.10;;;;;;5071214;28;20434;-67
2022/10/12 10:07:19;;;;;;;;;;;21.00;48.00;;;;;;5071791;28;19932;-67
2022/10/12 10:09:46;;;;;;;;;;;21.00;48.20;;;;;;5075518;28;20570;-71
2022/10/12 10:12:18;;;;;;;;;;;21.00;48.20;;;;;;5071520;28;19939;-70
2022/10/12 10:14:44;;;;;;;;;;;21.00;48.30;;;;;;5073012;28;19927;-69
2022/10/12 10:17:14;;;;;;;;;;;21.00;48.10;;;;;;5073203;28;19920;-69
2022/10/12 10:19:39;;;;;;;;;;;21.00;47.60;;;;;;5074774;28;19921;-70
2022/10/12 10:22:06;;;;;;;;;;;20.90;47.10;;;;;;5072730;28;20015;-70
2022/10/12 10:24:32;;;;;;;;;;;20.90;47.80;;;;;;5072038;28;19924;-70
2022/10/12 10:26:59;;;;;;;;;;;20.80;47.10;;;;;;5072933;28;19970;-69
2022/10/12 10:32:28;;;;;;;;;;;20.80;47.30;;;;;;5072972;28;19916;-68
2022/10/12 10:37:51;;;;;;;;;;;20.70;47.80;;;;;;5070321;28;19943;-69
2022/10/12 10:40:31;;;;;;;;;;;20.70;47.90;;;;;;5054017;28;20007;-69
2022/10/12 10:43:19;;;;;;;;;;;20.80;48.10;;;;;;5054744;28;19928;-70
2022/10/12 10:46:01;;;;;;;;;;;20.70;47.80;;;;;;5047282;28;19920;-69
2022/10/12 10:48:28;;;;;;;;;;;20.70;47.60;;;;;;5057513;28;20348;-69
2022/10/12 10:50:59;;;;;;;;;;;20.70;47.50;;;;;;5054720;28;19921;-69
2022/10/12 10:53:26;;;;;;;;;;;20.70;47.40;;;;;;5060303;28;20545;-69
2022/10/12 10:58:37;;;;;;;;;;;20.70;47.60;;;;;;5085142;27;20666;-67
2022/10/12 11:01:09;;;;;;;;;;;20.70;47.70;;;;;;5073158;28;20372;-66
2022/10/12 11:03:42;;;;;;;;;;;20.70;47.70;;;;;;5074848;28;19921;-71
2022/10/12 11:06:16;;;;;;;;;;;20.70;47.70;;;;;;5075461;28;19920;-70
2022/10/12 11:08:43;;;;;;;;;;;20.70;47.80;;;;;;5074421;28;19921;-71
2022/10/12 11:11:12;;;;;;;;;;;20.70;47.80;;;;;;5075640;28;20469;-71
2022/10/12 11:13:41;;;;;;;;;;;20.70;47.80;;;;;;5076461;28;19920;-71
2022/10/12 11:16:23;;;;;;;;;;;20.70;47.50;;;;;;5072821;28;19924;-70
2022/10/12 11:21:31;;;;;;;;;;;20.60;47.80;;;;;;5092914;27;19942;-70
2022/10/12 11:24:00;;;;;;;;;;;20.60;47.90;;;;;;5086270;28;19920;-70
2022/10/12 11:29:05;;;;;;;;;;;20.60;47.40;;;;;;5078867;27;19947;-73
2022/10/12 11:31:41;;;;;;;;;;;20.70;47.50;;;;;;5094404;28;19920;-70
2022/10/12 11:34:11;;;;;;;;;;;20.60;47.50;;;;;;5091683;28;19924;-70
2022/10/12 11:36:38;;;;;;;;;;;20.60;47.70;;;;;;5089849;27;20340;-70
2022/10/12 11:39:06;;;;;;;;;;;20.50;47.60;;;;;;5090622;28;19960;-70
2022/10/12 11:41:38;;;;;;;;;;;20.50;47.50;;;;;;5062389;28;19921;-70
2022/10/12 11:44:10;;;;;;;;;;;20.50;47.50;;;;;;5096970;28;19925;-71
2022/10/12 11:46:43;;;;;;;;;;;20.50;47.40;;;;;;5056623;28;19932;-70
2022/10/12 11:49:29;;;;;;;;;;;20.50;47.40;;;;;;5089302;28;19925;-71
2022/10/12 11:51:56;;;;;;;;;;;20.50;47.70;;;;;;5050790;28;19928;-68
2022/10/12 11:54:26;;;;;;;;;;;20.50;47.90;;;;;;5053194;28;20303;-69
2022/10/12 11:56:53;;;;;;;;;;;20.50;48.10;;;;;;5083945;28;19929;-77
2022/10/12 11:59:31;;;;;;;;;;;20.50;48.10;;;;;;5086195;28;19925;-69
2022/10/12 12:02:04;;;;;;;;;;;20.50;48.10;;;;;;5078689;28;19956;-70
2022/10/12 12:04:32;;;;;;;;;;;20.50;48.10;;;;;;5088860;28;19948;-70
2022/10/12 12:09:40;;;;;;;;;;;20.40;48.00;;;;;;5078105;27;19920;-69
2022/10/12 12:12:07;;;;;;;;;;;20.40;48.20;;;;;;5087787;28;20012;-71
2022/10/12 12:20:21;;;;;;;;;;;20.40;48.30;;;;;;5091394;27;19921;-69
2022/10/12 12:22:49;;;;;;;;;;;20.40;48.40;;;;;;5061388;28;20011;-69
2022/10/12 12:25:17;;;;;;;;;;;20.40;49.20;;;;;;5061250;28;20292;-69
2022/10/12 12:27:45;;;;;;;;;;;20.40;48.50;;;;;;5072941;28;20534;-69
2022/10/12 12:33:00;;;;;;;;;;;20.40;48.60;;;;;;5074930;28;20431;-70
2022/10/12 12:35:28;;;;;;;;;;;20.30;48.50;;;;;;5055029;28;19974;-69
2022/10/12 12:38:03;;;;;;;;;;;20.40;48.70;;;;;;5072213;28;19928;-69
2022/10/12 12:40:29;;;;;;;;;;;20.30;48.70;;;;;;5068689;28;20551;-70
2022/10/12 12:43:14;;;;;;;;;;;20.30;48.80;;;;;;5069360;28;19947;-70
2022/10/12 12:45:51;;;;;;;;;;;20.30;48.80;;;;;;5056337;28;19920;-70
2022/10/12 12:48:37;;;;;;;;;;;20.30;48.90;;;;;;5053340;28;19925;-70
2022/10/12 12:51:03;;;;;;;;;;;20.30;48.90;;;;;;5050773;28;19956;-70
2022/10/12 12:53:29;;;;;;;;;;;20.30;48.90;;;;;;5056744;28;19920;-70
2022/10/12 12:56:02;;;;;;;;;;;20.20;48.90;;;;;;5057915;28;20458;-70
2022/10/12 12:58:36;;;;;;;;;;;20.30;49.00;;;;;;5056416;28;19924;-70
2022/10/12 13:01:21;;;;;;;;;;;20.30;49.10;;;;;;5057803;28;19921;-70
2022/10/12 13:04:07;;;;;;;;;;;20.30;49.10;;;;;;5056195;28;19928;-70
2022/10/12 13:06:44;;;;;;;;;;;20.20;49.10;;;;;;5055637;28;19925;-70
2022/10/12 13:12:13;;;;;;;;;;;20.20;49.20;;;;;;5076396;27;20991;-70
2022/10/12 13:14:49;;;;;;;;;;;20.20;49.90;;;;;;5076316;28;19949;-70
2022/10/12 13:20:08;;;;;;;;;;;20.20;49.30;;;;;;5091065;27;19917;-70
2022/10/12 13:22:34;;;;;;;;;;;20.20;49.50;;;;;;5076998;28;19928;-70
2022/10/12 13:25:02;;;;;;;;;;;20.20;49.40;;;;;;5105267;27;20047;-70
2022/10/12 13:27:32;;;;;;;;;;;20.20;49.50;;;;;;5083186;28;20395;-70
2022/10/12 13:30:03;;;;;;;;;;;20.20;49.50;;;;;;5080027;28;19920;-70
2022/10/12 13:32:32;;;;;;;;;;;20.10;49.50;;;;;;5078740;28;20043;-70
2022/10/12 13:35:01;;;;;;;;;;;20.30;49.60;;;;;;5096157;28;20291;-70
2022/10/12 13:37:30;;;;;;;;;;;20.20;49.60;;;;;;5079442;28;20895;-70
2022/10/12 13:39:56;;;;;;;;;;;20.20;49.70;;;;;;5078341;28;20026;-70
2022/10/12 13:42:25;;;;;;;;;;;20.20;49.70;;;;;;5080923;28;20403;-71
2022/10/12 13:44:51;;;;;;;;;;;20.10;49.60;;;;;;5077812;28;19933;-70
2022/10/12 13:47:21;;;;;;;;;;;20.10;49.70;;;;;;5083068;28;20411;-70
2022/10/12 13:49:47;;;;;;;;;;;20.10;49.70;;;;;;5080175;28;19916;-71
2022/10/12 13:54:54;;;;;;;;;;;20.10;49.80;;;;;;5063460;28;19917;-70
2022/10/12 14:00:08;;;;;;;;;;;20.10;49.90;;;;;;5092569;27;20277;-71
2022/10/12 14:02:33;;;;;;;;;;;20.10;49.90;;;;;;5087897;28;19977;-71
2022/10/12 14:05:01;;;;;;;;;;;20.10;50.00;;;;;;5092366;28;20338;-71
2022/10/12 14:07:34;;;;;;;;;;;20.10;49.90;;;;;;5095753;28;20244;-74
2022/10/12 14:10:06;;;;;;;;;;;20.10;49.80;;;;;;5091970;28;19923;-71
2022/10/12 14:12:34;;;;;;;;;;;20.10;50.00;;;;;;5089607;28;20032;-72
2022/10/12 14:14:59;;;;;;;;;;;20.70;50.30;;;;;;5126364;27;19920;-72
2022/10/12 14:17:25;;;;;;;;;;;20.10;50.10;;;;;;5110906;28;19939;-71
2022/10/12 14:19:52;;;;;;;;;;;20.10;50.00;;;;;;5109052;28;20426;-70
2022/10/12 14:22:26;;;;;;;;;;;20.10;49.90;;;;;;5123624;28;19920;-71
2022/10/12 14:24:55;;;;;;;;;;;20.10;49.90;;;;;;5109153;28;19920;-71
2022/10/12 14:27:24;;;;;;;;;;;20.20;50.00;;;;;;5109128;28;19932;-71
2022/10/12 14:29:53;;;;;;;;;;;20.10;49.90;;;;;;5106722;28;19928;-71
2022/10/12 14:35:08;;;;;;;;;;;20.10;49.80;;;;;;5102125;27;20283;-71
2022/10/12 14:37:33;;;;;;;;;;;20.10;49.80;;;;;;5088320;28;19920;-70
2022/10/12 14:40:18;;;;;;;;;;;20.10;49.70;;;;;;5081300;28;19927;-71
2022/10/12 14:42:52;;;;;;;;;;;20.10;49.60;;;;;;5105192;28;19927;-69
2022/10/12 14:45:22;;;;;;;;;;;20.10;49.70;;;;;;5089580;28;20376;-70
2022/10/12 14:47:48;;;;;;;;;;;20.10;49.70;;;;;;5089211;28;19920;-72
2022/10/12 14:50:17;;;;;;;;;;;20.10;49.70;;;;;;5069191;28;19920;-76
2022/10/12 14:52:44;;;;;;;;;;;20.10;49.90;;;;;;5094394;28;19926;-71
2022/10/12 14:55:14;;;;;;;;;;;20.10;50.00;;;;;;5089173;28;19942;-70
2022/10/12 14:57:40;;;;;;;;;;;20.10;50.10;;;;;;5086798;28;19920;-70
2022/10/12 15:00:05;;;;;;;;;;;20.10;49.90;;;;;;5086600;28;19972;-71
2022/10/12 15:02:31;;;;;;;;;;;20.10;50.00;;;;;;5081036;28;20001;-71
2022/10/12 15:04:58;;;;;;;;;;;20.10;50.00;;;;;;5106889;28;19924;-71
2022/10/12 15:07:26;;;;;;;;;;;20.10;50.10;;;;;;5086646;28;19968;-71
2022/10/12 15:09:52;;;;;;;;;;;20.10;50.10;;;;;;5088966;28;19994;-71
2022/10/12 15:12:18;;;;;;;;;;;20.00;50.10;;;;;;5089102;28;19963;-71
2022/10/12 15:14:44;;;;;;;;;;;20.00;50.20;;;;;;5089945;28;19931;-71
2022/10/12 15:17:12;;;;;;;;;;;20.00;50.20;;;;;;5089776;28;19920;-71
2022/10/12 15:19:37;;;;;;;;;;;20.00;50.20;;;;;;5090269;28;19920;-71
2022/10/12 15:22:03;;;;;;;;;;;20.00;50.30;;;;;;5089781;28;20375;-71
2022/10/12 15:24:28;;;;;;;;;;;20.00;50.30;;;;;;5089535;28;19927;-71